Midland, MI (48640)

12:28 PM EST on February 10, 2016 (GMT -0500)
Midland Northwest | | Change Station
CLOSE
Current Station
Personal Weather Station
Location: Midland, MI
Elevation: 636 ft
Nearby Weather Stations

Elev 636 ft 43.65 °N, 84.28 °W | Updated 10 seconds ago

Overcast
Overcast
18.7 °F
Feels Like 12 °F
N
4.9
Wind Variable Wind from NW
Gusts 7.4 mph

Today
High -- | Low -- °F
--% Chance of Precip.
Yesterday
High -- | Low -- °F
Precip. -- in
Pressure 29.84 in
Visibility 10.0 miles
Clouds Scattered Clouds 3000 ft
Mostly Cloudy 3600 ft
Overcast 4200 ft
Windchill 12 °F
Dew Point -3 °F
Humidity 38%
Rainfall 0.00 in
Snow Depth Not available.
7:43 AM 6:00 PM
Waxing Crescent, 6% visible
METAR KIKW 101715Z AUTO 29009G15KT 10SM SCT030 BKN036 OVC042 M08/M15 A2984 RMK AO2 T10801148
Pressure 29.84 in
Visibility 10.0 miles
Clouds Scattered Clouds 3000 ft
Mostly Cloudy 3600 ft
Overcast 4200 ft
Windchill 12 °F
Dew Point -3 °F
Humidity 38%
Rainfall 0.00 in
Snow Depth Not available.
7:43 AM 6:00 PM
Waxing Crescent, 6% visible
METAR KIKW 101715Z AUTO 29009G15KT 10SM SCT030 BKN036 OVC042 M08/M15 A2984 RMK AO2 T10801148

10-Day Weather Forecast

Almanac

Astronomy

Feb. 10, 2016 Rise Set
Actual Time
Civil Twilight
Nautical Twilight
Astronomical Twilight
Moon
Length of Visible Light
Length of Day
Tomorrow will be .
, % of the Moon is Illuminated

Today's Extremes

State Highs State Lows

Community

WunderPhotos

Upload Photos

1,891,895 photos uploaded!

WunderBlog® & News

Nearby

Air Quality

  Air Quality AQ Index Pollutant
Not available.

Snow Depth

Station Depth Elevation

Earthquake Activity

City Distance Mag. Time & Date
Minimum magnitude displayed is 2.5.

Coastal Water Temperatures

Place Temperature

Stations

Nearby Weather Stations

Station Location Temp. Windchill Dew Point Humidity Wind Precip. Elev Updated Type
                   

Watches & Warnings

There are currently no watches in effect.